ADDS METAR Data INFO
IDs: Format: Raw Decoded Include TAF

Data at: 2020 UTC 16 Aug 2018

METAR for:KTVY (Tooele Valley Arpt, UT, US)
Text:KTVY 162015Z AUTO 02010G16KT 10SM CLR 31/09 A3015 RMK AO2
Temperature: 31.0°C ( 88°F)
Dewpoint: 9.0°C ( 48°F) [RH = 26%]
Pressure (altimeter):30.15 inches Hg (1021.1 mb)
Winds:from the NNE (20 degrees) at 12 MPH (10 knots; 5.1 m/s) gusting to 18 MPH (16 knots; 8.2 m/s)
Visibility:10 or more sm (16+ km)
Ceiling:at least 12,000 feet AGL
Clouds:sky clear below 12,000 feet AGL
QC Flag:automated observation with no human augmentation
Text:KTVY 161955Z AUTO 01009KT 310V020 10SM CLR 31/09 A3016 RMK AO2
Temperature: 31.0°C ( 88°F)
Dewpoint: 9.0°C ( 48°F) [RH = 26%]
Pressure (altimeter):30.16 inches Hg (1021.4 mb)
Winds:from the N (10 degrees) at 10 MPH (9 knots; 4.6 m/s)
Visibility:10 or more sm (16+ km)
Ceiling:at least 12,000 feet AGL
Clouds:sky clear below 12,000 feet AGL
QC Flag:automated observation with no human augmentation
Text:KTVY 161935Z AUTO 01008KT 10SM CLR 31/10 A3016 RMK AO2
Temperature: 31.0°C ( 88°F)
Dewpoint: 10.0°C ( 50°F) [RH = 27%]
Pressure (altimeter):30.16 inches Hg (1021.4 mb)
Winds:from the N (10 degrees) at 9 MPH (8 knots; 4.1 m/s)
Visibility:10 or more sm (16+ km)
Ceiling:at least 12,000 feet AGL
Clouds:sky clear below 12,000 feet AGL
QC Flag:automated observation with no human augmentation
Text:KTVY 161915Z AUTO 34008KT 10SM CLR 31/10 A3017 RMK AO2
Temperature: 31.0°C ( 88°F)
Dewpoint: 10.0°C ( 50°F) [RH = 27%]
Pressure (altimeter):30.17 inches Hg (1021.8 mb)
Winds:from the NNW (340 degrees) at 9 MPH (8 knots; 4.1 m/s)
Visibility:10 or more sm (16+ km)
Ceiling:at least 12,000 feet AGL
Clouds:sky clear below 12,000 feet AGL
QC Flag:automated observation with no human augmentation
Text:KTVY 161855Z AUTO 02007KT 10SM CLR 31/09 A3017 RMK AO2
Temperature: 31.0°C ( 88°F)
Dewpoint: 9.0°C ( 48°F) [RH = 26%]
Pressure (altimeter):30.17 inches Hg (1021.8 mb)
Winds:from the NNE (20 degrees) at 8 MPH (7 knots; 3.6 m/s)
Visibility:10 or more sm (16+ km)
Ceiling:at least 12,000 feet AGL
Clouds:sky clear below 12,000 feet AGL
QC Flag:automated observation with no human augmentation
Text:KTVY 161835Z AUTO 01008G14KT 350V050 10SM CLR 30/09 A3017 RMK AO2
Temperature: 30.0°C ( 86°F)
Dewpoint: 9.0°C ( 48°F) [RH = 27%]
Pressure (altimeter):30.17 inches Hg (1021.8 mb)
Winds:from the N (10 degrees) at 9 MPH (8 knots; 4.1 m/s) gusting to 16 MPH (14 knots; 7.2 m/s)
Visibility:10 or more sm (16+ km)
Ceiling:at least 12,000 feet AGL
Clouds:sky clear below 12,000 feet AGL
QC Flag:automated observation with no human augmentation
Text:KTVY 161815Z AUTO 01010G14KT 10SM CLR 30/10 A3018 RMK AO2
Temperature: 30.0°C ( 86°F)
Dewpoint: 10.0°C ( 50°F) [RH = 29%]
Pressure (altimeter):30.18 inches Hg (1022.1 mb)
Winds:from the N (10 degrees) at 12 MPH (10 knots; 5.1 m/s) gusting to 16 MPH (14 knots; 7.2 m/s)
Visibility:10 or more sm (16+ km)
Ceiling:at least 12,000 feet AGL
Clouds:sky clear below 12,000 feet AGL
QC Flag:automated observation with no human augmentation
Text:KTVY 161755Z AUTO 05003KT 10SM CLR 30/09 A3018 RMK AO2
Temperature: 30.0°C ( 86°F)
Dewpoint: 9.0°C ( 48°F) [RH = 27%]
Pressure (altimeter):30.18 inches Hg (1022.1 mb)
Winds:from the NE (50 degrees) at 3 MPH (3 knots; 1.5 m/s)
Visibility:10 or more sm (16+ km)
Ceiling:at least 12,000 feet AGL
Clouds:sky clear below 12,000 feet AGL
QC Flag:automated observation with no human augmentation
Text:KTVY 161735Z AUTO 03009KT 10SM CLR 29/09 A3018 RMK AO2
Temperature: 29.0°C ( 84°F)
Dewpoint: 9.0°C ( 48°F) [RH = 29%]
Pressure (altimeter):30.18 inches Hg (1022.1 mb)
Winds:from the NNE (30 degrees) at 10 MPH (9 knots; 4.6 m/s)
Visibility:10 or more sm (16+ km)
Ceiling:at least 12,000 feet AGL
Clouds:sky clear below 12,000 feet AGL
QC Flag:automated observation with no human augmentation
Text:KTVY 161715Z AUTO 02005KT 10SM CLR 30/09 A3018 RMK AO2
Temperature: 30.0°C ( 86°F)
Dewpoint: 9.0°C ( 48°F) [RH = 27%]
Pressure (altimeter):30.18 inches Hg (1022.1 mb)
Winds:from the NNE (20 degrees) at 6 MPH (5 knots; 2.6 m/s)
Visibility:10 or more sm (16+ km)
Ceiling:at least 12,000 feet AGL
Clouds:sky clear below 12,000 feet AGL
QC Flag:automated observation with no human augmentation
Text:KTVY 161655Z AUTO 03006KT 10SM CLR 28/09 A3018 RMK AO2
Temperature: 28.0°C ( 82°F)
Dewpoint: 9.0°C ( 48°F) [RH = 30%]
Pressure (altimeter):30.18 inches Hg (1022.1 mb)
Winds:from the NNE (30 degrees) at 7 MPH (6 knots; 3.1 m/s)
Visibility:10 or more sm (16+ km)
Ceiling:at least 12,000 feet AGL
Clouds:sky clear below 12,000 feet AGL
QC Flag:automated observation with no human augmentation
Text:KTVY 161635Z AUTO 07004KT 10SM CLR 28/09 A3018 RMK AO2
Temperature: 28.0°C ( 82°F)
Dewpoint: 9.0°C ( 48°F) [RH = 30%]
Pressure (altimeter):30.18 inches Hg (1022.1 mb)
Winds:from the ENE (70 degrees) at 5 MPH (4 knots; 2.1 m/s)
Visibility:10 or more sm (16+ km)
Ceiling:at least 12,000 feet AGL
Clouds:sky clear below 12,000 feet AGL
QC Flag:automated observation with no human augmentation
Text:KTVY 161615Z AUTO 04004KT 10SM CLR 28/09 A3018 RMK AO2
Temperature: 28.0°C ( 82°F)
Dewpoint: 9.0°C ( 48°F) [RH = 30%]
Pressure (altimeter):30.18 inches Hg (1022.1 mb)
Winds:from the NE (40 degrees) at 5 MPH (4 knots; 2.1 m/s)
Visibility:10 or more sm (16+ km)
Ceiling:at least 12,000 feet AGL
Clouds:sky clear below 12,000 feet AGL
QC Flag:automated observation with no human augmentation
Text:KTVY 161555Z AUTO 00000KT 10SM CLR 28/09 A3017 RMK AO2
Temperature: 28.0°C ( 82°F)
Dewpoint: 9.0°C ( 48°F) [RH = 30%]
Pressure (altimeter):30.17 inches Hg (1021.8 mb)
Winds:calm
Visibility:10 or more sm (16+ km)
Ceiling:at least 12,000 feet AGL
Clouds:sky clear below 12,000 feet AGL
QC Flag:automated observation with no human augmentation
Text:KTVY 161535Z AUTO 13003KT 10SM CLR 27/08 A3017 RMK AO2
Temperature: 27.0°C ( 81°F)
Dewpoint: 8.0°C ( 46°F) [RH = 30%]
Pressure (altimeter):30.17 inches Hg (1021.8 mb)
Winds:from the SE (130 degrees) at 3 MPH (3 knots; 1.5 m/s)
Visibility:10 or more sm (16+ km)
Ceiling:at least 12,000 feet AGL
Clouds:sky clear below 12,000 feet AGL
QC Flag:automated observation with no human augmentation